Time;durP1;ratioP1;P1;durP2;ratioP2;P2;SDS_P1;SDS_P2;PMS_P1;PMS_P2;Temp;Humidity;BMP_temperature;BMP_pressure;BME280_temperature;BME280_humidity;BME280_pressure;Samples;Min_cycle;Max_cycle;Signal;HPM_P1;HPM_P2
2021/07/19 00:02:10;;;;;;;4.18;1.35;;;;;;;;;;3626246;39;20098;-55
2021/07/19 00:04:44;;;;;;;2.78;1.25;;;;;;;;;;3626404;39;20047;-49
2021/07/19 00:07:13;;;;;;;2.42;0.98;;;;;;;;;;3626514;39;20175;-53
2021/07/19 00:09:46;;;;;;;1.45;0.90;;;;;;;;;;3626056;39;20107;-47
2021/07/19 00:12:15;;;;;;;3.05;1.70;;;;;;;;;;3626556;39;20057;-55
2021/07/19 00:14:44;;;;;;;6.38;1.25;;;;;;;;;;3626395;39;20038;-58
2021/07/19 00:17:14;;;;;;;4.03;1.13;;;;;;;;;;3626093;39;20047;-56
2021/07/19 00:19:41;;;;;;;3.78;1.52;;;;;;;;;;3626334;39;20047;-58
2021/07/19 00:22:09;;;;;;;6.88;1.23;;;;;;;;;;3626173;39;20036;-58
2021/07/19 00:24:36;;;;;;;7.07;1.20;;;;;;;;;;3626328;39;20509;-53
2021/07/19 00:27:04;;;;;;;6.20;1.40;;;;;;;;;;3626508;39;20059;-51
2021/07/19 00:29:32;;;;;;;3.00;1.20;;;;;;;;;;3626281;39;20055;-51
2021/07/19 00:31:59;;;;;;;2.42;1.23;;;;;;;;;;3626688;39;20043;-56
2021/07/19 00:34:28;;;;;;;3.13;1.30;;;;;;;;;;3625374;39;20055;-57
2021/07/19 00:36:57;;;;;;;4.47;1.33;;;;;;;;;;3626148;39;20460;-47
2021/07/19 00:39:25;;;;;;;3.67;1.10;;;;;;;;;;3626352;39;20054;-50
2021/07/19 00:41:54;;;;;;;2.35;1.10;;;;;;;;;;3625945;39;20049;-50
2021/07/19 00:44:22;;;;;;;2.28;1.25;;;;;;;;;;3626127;39;20039;-58
2021/07/19 00:46:51;;;;;;;2.72;1.40;;;;;;;;;;3626501;39;20075;-58
2021/07/19 00:49:23;;;;;;;4.45;1.40;;;;;;;;;;3626004;39;20128;-52
2021/07/19 00:51:54;;;;;;;1.83;1.20;;;;;;;;;;3626327;39;20089;-43
2021/07/19 00:54:24;;;;;;;3.78;1.52;;;;;;;;;;3626711;39;20426;-58
2021/07/19 00:56:55;;;;;;;2.25;1.27;;;;;;;;;;3627582;39;20034;-52
2021/07/19 00:59:24;;;;;;;3.00;1.35;;;;;;;;;;3627675;39;20280;-49
2021/07/19 01:01:54;;;;;;;2.65;1.42;;;;;;;;;;3618129;39;20038;-53
2021/07/19 01:04:25;;;;;;;4.57;1.45;;;;;;;;;;3627556;39;20086;-47
2021/07/19 01:06:58;;;;;;;2.50;1.48;;;;;;;;;;3627721;39;20046;-58
2021/07/19 01:09:30;;;;;;;2.17;1.15;;;;;;;;;;3627863;39;20465;-48
2021/07/19 01:11:59;;;;;;;3.20;1.75;;;;;;;;;;3627379;39;20062;-49
2021/07/19 01:14:29;;;;;;;4.78;1.45;;;;;;;;;;3617730;39;20054;-58
2021/07/19 01:16:56;;;;;;;2.15;1.30;;;;;;;;;;3627874;39;20039;-46
2021/07/19 01:19:30;;;;;;;2.70;1.30;;;;;;;;;;3617858;39;20198;-48
2021/07/19 01:22:29;;;;;;;4.78;1.60;;;;;;;;;;3627367;39;20055;-58
2021/07/19 01:25:35;;;;;;;3.70;1.63;;;;;;;;;;3627300;39;20061;-50
2021/07/19 01:28:14;;;;;;;4.20;1.40;;;;;;;;;;3627201;39;20054;-53
2021/07/19 01:30:43;;;;;;;2.05;1.13;;;;;;;;;;3628029;39;20039;-48
2021/07/19 01:33:13;;;;;;;2.85;1.40;;;;;;;;;;3627247;39;20063;-52
2021/07/19 01:35:45;;;;;;;3.25;1.20;;;;;;;;;;3627603;39;20308;-57
2021/07/19 01:38:17;;;;;;;1.85;1.08;;;;;;;;;;3627413;39;20408;-54
2021/07/19 01:40:51;;;;;;;2.27;1.50;;;;;;;;;;3617841;39;20046;-51
2021/07/19 01:43:20;;;;;;;4.47;1.23;;;;;;;;;;3627848;39;20087;-58
2021/07/19 01:45:49;;;;;;;2.50;1.23;;;;;;;;;;3627711;39;20146;-57
2021/07/19 01:48:20;;;;;;;7.18;1.30;;;;;;;;;;3627471;39;20043;-49
2021/07/19 01:50:49;;;;;;;2.80;1.33;;;;;;;;;;3627400;39;20237;-55
2021/07/19 01:53:20;;;;;;;2.92;1.45;;;;;;;;;;3617432;39;20047;-52
2021/07/19 01:55:50;;;;;;;2.15;1.05;;;;;;;;;;3625523;39;20058;-58
2021/07/19 01:58:21;;;;;;;3.00;1.50;;;;;;;;;;3617657;39;20306;-55
2021/07/19 02:01:00;;;;;;;4.90;1.23;;;;;;;;;;3617209;39;20423;-54
2021/07/19 02:03:31;;;;;;;2.38;1.38;;;;;;;;;;3627851;39;20035;-58
2021/07/19 02:06:03;;;;;;;3.15;1.40;;;;;;;;;;3616915;39;20050;-52
2021/07/19 02:08:34;;;;;;;1.73;1.10;;;;;;;;;;3617293;39;20388;-56
2021/07/19 02:11:29;;;;;;;1.80;1.00;;;;;;;;;;3625053;39;20038;-58
2021/07/19 02:13:58;;;;;;;3.40;1.20;;;;;;;;;;3617455;39;20408;-45
2021/07/19 02:16:28;;;;;;;2.03;1.23;;;;;;;;;;3627005;39;20408;-56
2021/07/19 02:18:58;;;;;;;3.50;1.38;;;;;;;;;;3627231;39;20142;-48
2021/07/19 02:21:32;;;;;;;6.22;1.58;;;;;;;;;;3627271;39;20062;-52
2021/07/19 02:24:36;;;;;;;32.65;18.25;;;;;;;;;;3615380;39;20411;-55
2021/07/19 02:27:17;;;;;;;5.78;2.92;;;;;;;;;;3627137;39;20107;-50
2021/07/19 02:29:47;;;;;;;3.17;1.75;;;;;;;;;;3627130;39;20069;-54
2021/07/19 02:32:17;;;;;;;2.38;1.60;;;;;;;;;;3617416;39;20047;-50
2021/07/19 02:34:50;;;;;;;2.58;1.30;;;;;;;;;;3617445;39;20038;-48
2021/07/19 02:37:20;;;;;;;20.15;7.80;;;;;;;;;;3625182;39;20038;-47
2021/07/19 02:40:08;;;;;;;19.80;8.90;;;;;;;;;;3626999;39;20042;-43
2021/07/19 02:42:45;;;;;;;3.50;1.98;;;;;;;;;;3627812;39;20127;-45
2021/07/19 02:45:15;;;;;;;2.25;1.38;;;;;;;;;;3626867;39;20147;-46
2021/07/19 02:47:49;;;;;;;2.78;1.30;;;;;;;;;;3617314;39;20119;-49
2021/07/19 02:50:23;;;;;;;2.92;1.13;;;;;;;;;;3616982;39;20046;-55
2021/07/19 02:52:56;;;;;;;9.13;5.05;;;;;;;;;;3627043;39;20050;-48
2021/07/19 02:55:24;;;;;;;146.48;65.55;;;;;;;;;;3626975;39;20057;-56
2021/07/19 02:57:52;;;;;;;7.20;3.83;;;;;;;;;;3617165;39;20054;-60
2021/07/19 03:00:20;;;;;;;3.22;1.33;;;;;;;;;;3615048;39;20035;-59
2021/07/19 03:02:58;;;;;;;2.30;1.20;;;;;;;;;;3626993;39;20417;-56
2021/07/19 03:05:34;;;;;;;2.88;1.30;;;;;;;;;;3626727;39;20569;-55
2021/07/19 03:08:06;;;;;;;2.88;1.20;;;;;;;;;;3617186;39;20043;-57
2021/07/19 03:10:59;;;;;;;2.05;1.20;;;;;;;;;;3617286;39;20123;-61
2021/07/19 03:13:32;;;;;;;4.38;1.08;;;;;;;;;;3608982;39;20062;-46
2021/07/19 03:16:01;;;;;;;2.70;1.45;;;;;;;;;;3626960;39;20073;-60
2021/07/19 03:18:32;;;;;;;53.50;38.83;;;;;;;;;;3616904;39;20055;-53
2021/07/19 03:21:02;;;;;;;14.13;7.20;;;;;;;;;;3617083;39;20420;-57
2021/07/19 03:23:33;;;;;;;4.05;2.10;;;;;;;;;;3626800;39;20050;-50
2021/07/19 03:26:02;;;;;;;2.60;1.33;;;;;;;;;;3616858;39;20049;-48
2021/07/19 03:28:30;;;;;;;2.53;1.30;;;;;;;;;;3626603;39;20054;-49
2021/07/19 03:31:01;;;;;;;3.13;1.30;;;;;;;;;;3617206;39;20050;-49
2021/07/19 03:33:30;;;;;;;2.75;1.42;;;;;;;;;;3616947;39;20055;-59
2021/07/19 03:35:58;;;;;;;3.60;1.48;;;;;;;;;;3616585;39;20050;-55
2021/07/19 03:38:26;;;;;;;2.58;1.27;;;;;;;;;;3627132;39;20057;-62
2021/07/19 03:41:16;;;;;;;92.68;40.05;;;;;;;;;;3616875;39;20416;-44
2021/07/19 03:43:48;;;;;;;14.07;5.82;;;;;;;;;;3617065;39;20043;-51
2021/07/19 03:46:20;;;;;;;2.08;1.25;;;;;;;;;;3616636;39;20420;-57
2021/07/19 03:48:50;;;;;;;3.37;1.10;;;;;;;;;;3616832;39;20042;-61
2021/07/19 03:51:17;;;;;;;3.13;1.38;;;;;;;;;;3616850;39;20284;-56
2021/07/19 03:53:49;;;;;;;2.22;1.00;;;;;;;;;;3616736;39;20100;-61
2021/07/19 03:56:17;;;;;;;2.92;1.00;;;;;;;;;;3626597;39;20051;-47
2021/07/19 03:58:45;;;;;;;2.47;1.05;;;;;;;;;;3616865;39;20042;-61
2021/07/19 04:01:14;;;;;;;1.45;0.85;;;;;;;;;;3616964;39;20035;-61
2021/07/19 04:03:51;;;;;;;2.45;0.90;;;;;;;;;;3624511;39;20047;-59
2021/07/19 04:06:23;;;;;;;9.95;5.35;;;;;;;;;;3617086;39;20035;-54
2021/07/19 04:08:55;;;;;;;9.32;4.80;;;;;;;;;;3595090;39;20043;-55
2021/07/19 04:11:27;;;;;;;2.50;1.30;;;;;;;;;;3606357;39;20292;-59
2021/07/19 04:14:01;;;;;;;1.90;1.02;;;;;;;;;;3606239;39;20082;-60
2021/07/19 04:16:29;;;;;;;3.90;1.02;;;;;;;;;;3596700;39;20074;-60
2021/07/19 04:18:57;;;;;;;3.38;0.95;;;;;;;;;;3596156;39;20518;-50
2021/07/19 04:21:24;;;;;;;1.67;0.70;;;;;;;;;;3596232;39;20447;-56
2021/07/19 04:23:54;;;;;;;3.42;1.38;;;;;;;;;;3596101;39;20125;-50
2021/07/19 04:26:28;;;;;;;1.17;0.80;;;;;;;;;;3606070;39;20088;-49
2021/07/19 04:29:06;;;;;;;3.17;1.13;;;;;;;;;;3605838;39;20036;-59
2021/07/19 04:31:39;;;;;;;1.20;0.85;;;;;;;;;;3598269;39;20054;-54
2021/07/19 04:34:09;;;;;;;1.45;0.70;;;;;;;;;;3597486;39;20050;-58
2021/07/19 04:36:41;;;;;;;2.95;0.90;;;;;;;;;;3607238;39;20048;-57
2021/07/19 04:39:12;;;;;;;24.15;11.30;;;;;;;;;;3607434;39;20080;-65
2021/07/19 04:41:41;;;;;;;6.63;3.25;;;;;;;;;;3597297;39;20421;-58
2021/07/19 04:44:08;;;;;;;2.78;1.23;;;;;;;;;;3597857;39;20055;-55
2021/07/19 04:46:35;;;;;;;2.40;0.90;;;;;;;;;;3607489;39;20444;-56
2021/07/19 04:49:02;;;;;;;2.20;0.80;;;;;;;;;;3607453;39;20047;-51
2021/07/19 04:51:30;;;;;;;1.52;0.50;;;;;;;;;;3607101;39;20055;-51
2021/07/19 04:53:58;;;;;;;1.90;0.70;;;;;;;;;;3607331;39;20054;-50
2021/07/19 04:56:26;;;;;;;1.15;0.60;;;;;;;;;;3597627;39;20040;-60
2021/07/19 04:58:56;;;;;;;2.28;1.08;;;;;;;;;;3606992;39;20413;-56
2021/07/19 05:01:27;;;;;;;1.55;0.80;;;;;;;;;;3607357;39;20047;-55
2021/07/19 05:03:56;;;;;;;1.75;0.80;;;;;;;;;;3597631;39;20055;-52
2021/07/19 05:06:27;;;;;;;1.25;0.60;;;;;;;;;;3607025;39;20509;-49
2021/07/19 05:08:56;;;;;;;1.25;0.80;;;;;;;;;;3607056;39;20052;-49
2021/07/19 05:11:25;;;;;;;2.70;0.63;;;;;;;;;;3607362;39;20039;-45
2021/07/19 05:13:53;;;;;;;0.93;0.50;;;;;;;;;;3606964;39;20047;-51
2021/07/19 05:16:21;;;;;;;0.90;0.50;;;;;;;;;;3597390;39;20282;-54
2021/07/19 05:18:49;;;;;;;3.90;1.83;;;;;;;;;;3607195;39;20056;-56
2021/07/19 05:21:17;;;;;;;3.63;1.75;;;;;;;;;;3607055;39;20052;-54
2021/07/19 05:23:44;;;;;;;4.57;1.00;;;;;;;;;;3606894;39;20043;-58
2021/07/19 05:26:15;;;;;;;3.80;0.82;;;;;;;;;;3607151;39;20058;-59
2021/07/19 05:28:43;;;;;;;1.67;0.70;;;;;;;;;;3607232;39;20131;-48
2021/07/19 05:31:10;;;;;;;1.50;0.60;;;;;;;;;;3606666;39;20039;-51
2021/07/19 05:33:38;;;;;;;1.27;0.65;;;;;;;;;;3606983;39;20059;-54
2021/07/19 05:36:05;;;;;;;1.25;0.65;;;;;;;;;;3607424;39;20104;-53
2021/07/19 05:38:32;;;;;;;0.98;0.50;;;;;;;;;;3607373;39;20050;-50
2021/07/19 05:41:00;;;;;;;1.30;0.70;;;;;;;;;;3606107;39;20048;-47
2021/07/19 05:43:27;;;;;;;2.05;0.68;;;;;;;;;;3607102;39;20428;-57
2021/07/19 05:45:55;;;;;;;1.08;0.75;;;;;;;;;;3607048;39;20338;-57
2021/07/19 05:48:22;;;;;;;36.83;16.67;;;;;;;;;;3607154;39;20054;-55
2021/07/19 05:50:49;;;;;;;2.00;0.90;;;;;;;;;;3606736;39;20401;-55
2021/07/19 05:53:19;;;;;;;2.40;0.57;;;;;;;;;;3607079;39;20059;-55
2021/07/19 05:55:49;;;;;;;1.10;0.50;;;;;;;;;;3607404;39;20144;-49
2021/07/19 05:58:18;;;;;;;3.35;0.68;;;;;;;;;;3596993;39;20077;-57
2021/07/19 06:00:47;;;;;;;1.77;0.50;;;;;;;;;;3606902;39;20048;-56
2021/07/19 06:03:14;;;;;;;2.00;0.82;;;;;;;;;;3606857;39;20108;-57
2021/07/19 06:05:42;;;;;;;1.40;0.63;;;;;;;;;;3607043;39;20070;-56
2021/07/19 06:08:09;;;;;;;1.90;0.40;;;;;;;;;;3606840;39;20322;-51
2021/07/19 06:10:37;;;;;;;1.48;0.50;;;;;;;;;;3606796;39;20574;-57
2021/07/19 06:13:04;;;;;;;2.72;0.43;;;;;;;;;;3607014;39;20054;-45
2021/07/19 06:15:31;;;;;;;14.32;9.23;;;;;;;;;;3606274;39;20070;-56
2021/07/19 06:17:59;;;;;;;45.88;21.67;;;;;;;;;;3606741;39;20078;-54
2021/07/19 06:20:28;;;;;;;5.65;1.98;;;;;;;;;;3606737;39;20084;-50
2021/07/19 06:23:00;;;;;;;1.63;0.60;;;;;;;;;;3606881;39;20076;-55
2021/07/19 06:25:33;;;;;;;1.27;0.50;;;;;;;;;;3604728;39;20047;-42
2021/07/19 06:28:03;;;;;;;0.68;0.30;;;;;;;;;;3607053;39;20067;-52
2021/07/19 06:30:31;;;;;;;1.00;0.55;;;;;;;;;;3606386;39;20423;-60
2021/07/19 06:32:58;;;;;;;0.45;0.28;;;;;;;;;;3606884;39;20128;-48
2021/07/19 06:35:26;;;;;;;0.73;0.40;;;;;;;;;;3606657;39;20146;-57
2021/07/19 06:37:54;;;;;;;0.55;0.40;;;;;;;;;;3606758;39;20043;-48
2021/07/19 06:40:21;;;;;;;1.05;0.52;;;;;;;;;;3596957;39;20112;-52
2021/07/19 06:42:49;;;;;;;1.13;0.50;;;;;;;;;;3596915;39;20044;-48
2021/07/19 06:45:16;;;;;;;0.85;0.40;;;;;;;;;;3606794;39;20036;-49
2021/07/19 06:47:44;;;;;;;1.92;0.40;;;;;;;;;;3597228;39;20048;-48
2021/07/19 06:50:12;;;;;;;2.83;0.52;;;;;;;;;;3606612;39;20040;-56
2021/07/19 06:52:41;;;;;;;0.68;0.43;;;;;;;;;;3606430;39;20097;-58
2021/07/19 06:55:10;;;;;;;0.93;0.35;;;;;;;;;;3597258;39;20394;-46
2021/07/19 06:57:38;;;;;;;1.75;0.32;;;;;;;;;;3606341;39;20043;-58
2021/07/19 07:00:07;;;;;;;39.67;19.98;;;;;;;;;;3606563;39;20048;-53
2021/07/19 07:02:34;;;;;;;4.25;1.58;;;;;;;;;;3606942;39;20043;-51
2021/07/19 07:05:04;;;;;;;7.80;2.22;;;;;;;;;;3606560;39;20051;-57
2021/07/19 07:07:31;;;;;;;2.25;1.10;;;;;;;;;;3606843;39;20325;-56
2021/07/19 07:09:58;;;;;;;6.18;2.28;;;;;;;;;;3607258;39;20077;-57
2021/07/19 07:12:26;;;;;;;2.97;0.90;;;;;;;;;;3606545;39;20100;-58
2021/07/19 07:14:53;;;;;;;3.80;0.40;;;;;;;;;;3605915;39;20108;-56
2021/07/19 07:17:21;;;;;;;2.72;0.50;;;;;;;;;;3606489;39;20125;-50
2021/07/19 07:19:51;;;;;;;2.10;0.47;;;;;;;;;;3606386;39;20059;-49
2021/07/19 07:22:19;;;;;;;2.28;0.35;;;;;;;;;;3606397;39;20040;-48
2021/07/19 07:24:47;;;;;;;0.68;0.30;;;;;;;;;;3606376;39;20047;-53
2021/07/19 07:27:17;;;;;;;0.93;0.40;;;;;;;;;;3606444;39;20048;-47
2021/07/19 07:29:46;;;;;;;0.38;0.20;;;;;;;;;;3606332;39;20075;-54
2021/07/19 07:32:13;;;;;;;2.67;0.50;;;;;;;;;;3606127;39;20079;-57
2021/07/19 07:34:41;;;;;;;2.00;0.50;;;;;;;;;;3607931;39;20048;-48
2021/07/19 07:37:12;;;;;;;1.17;0.60;;;;;;;;;;3606466;39;20039;-45
2021/07/19 07:39:43;;;;;;;1.67;0.70;;;;;;;;;;3606076;39;20443;-57
2021/07/19 07:42:13;;;;;;;1.05;0.50;;;;;;;;;;3606378;39;20040;-54
2021/07/19 07:44:40;;;;;;;0.82;0.40;;;;;;;;;;3606168;39;20419;-55
2021/07/19 07:47:09;;;;;;;1.15;0.40;;;;;;;;;;3606006;39;20055;-49
2021/07/19 07:49:38;;;;;;;1.02;0.50;;;;;;;;;;3606103;39;20521;-52
2021/07/19 07:52:08;;;;;;;0.65;0.43;;;;;;;;;;3606278;39;20417;-57
2021/07/19 07:54:36;;;;;;;1.08;0.40;;;;;;;;;;3606000;39;20044;-49
2021/07/19 07:57:04;;;;;;;1.50;0.60;;;;;;;;;;3604154;39;20051;-51
2021/07/19 07:59:32;;;;;;;1.70;0.40;;;;;;;;;;3606126;39;20353;-60
2021/07/19 08:01:59;;;;;;;1.55;0.77;;;;;;;;;;3606161;39;20258;-57
2021/07/19 08:04:29;;;;;;;1.25;0.65;;;;;;;;;;3596608;39;20441;-57
2021/07/19 08:07:01;;;;;;;1.00;0.52;;;;;;;;;;3607954;39;20067;-54
2021/07/19 08:09:29;;;;;;;0.65;0.40;;;;;;;;;;3607591;39;20059;-48
2021/07/19 08:11:57;;;;;;;0.63;0.32;;;;;;;;;;3607249;39;20124;-46
2021/07/19 08:14:26;;;;;;;0.43;0.40;;;;;;;;;;3607405;39;20051;-57
2021/07/19 08:16:53;;;;;;;3.22;0.60;;;;;;;;;;3608019;39;20051;-55
2021/07/19 08:19:28;;;;;;;0.88;0.40;;;;;;;;;;3607032;39;20144;-45
2021/07/19 08:21:56;;;;;;;1.25;0.40;;;;;;;;;;3607225;39;20051;-48
2021/07/19 08:24:24;;;;;;;0.60;0.40;;;;;;;;;;3607600;39;20054;-57
2021/07/19 08:26:52;;;;;;;0.75;0.38;;;;;;;;;;3607698;39;20036;-45
2021/07/19 08:29:21;;;;;;;1.30;0.30;;;;;;;;;;3605371;39;20047;-56
2021/07/19 08:31:49;;;;;;;0.52;0.30;;;;;;;;;;3607543;39;20054;-55
2021/07/19 08:34:16;;;;;;;0.73;0.40;;;;;;;;;;3607513;39;20056;-57
2021/07/19 08:36:44;;;;;;;2.80;0.40;;;;;;;;;;3607035;39;20050;-56
2021/07/19 08:39:11;;;;;;;0.70;0.40;;;;;;;;;;3607594;39;20052;-49
2021/07/19 08:41:39;;;;;;;23.30;13.85;;;;;;;;;;3607851;39;20435;-52
2021/07/19 08:44:09;;;;;;;138.93;66.15;;;;;;;;;;3607566;39;20400;-55
2021/07/19 08:46:42;;;;;;;5.00;2.42;;;;;;;;;;3607606;39;20048;-49
2021/07/19 08:49:10;;;;;;;0.85;0.50;;;;;;;;;;3607399;39;20087;-51
2021/07/19 08:51:40;;;;;;;1.27;0.40;;;;;;;;;;3607210;39;20054;-51
2021/07/19 08:54:12;;;;;;;0.45;0.30;;;;;;;;;;3607283;39;20321;-57
2021/07/19 08:56:41;;;;;;;4.05;0.63;;;;;;;;;;3607370;39;20055;-53
2021/07/19 08:59:10;;;;;;;1.23;0.40;;;;;;;;;;3607815;39;20048;-48
2021/07/19 09:01:40;;;;;;;1.23;0.40;;;;;;;;;;3605289;39;20031;-55
2021/07/19 09:04:08;;;;;;;1.08;0.45;;;;;;;;;;3606750;39;20039;-56
2021/07/19 09:06:39;;;;;;;1.10;0.38;;;;;;;;;;3607252;39;20052;-48
2021/07/19 09:09:06;;;;;;;0.65;0.35;;;;;;;;;;3607405;39;20144;-57
2021/07/19 09:11:34;;;;;;;4.70;0.60;;;;;;;;;;3609044;39;20137;-48
2021/07/19 09:14:06;;;;;;;0.98;0.40;;;;;;;;;;3607286;39;20044;-57
2021/07/19 09:16:47;;;;;;;1.23;0.40;;;;;;;;;;3604862;39;20039;-48
2021/07/19 09:19:23;;;;;;;0.90;0.50;;;;;;;;;;3607153;39;20270;-57
2021/07/19 09:22:00;;;;;;;0.85;0.45;;;;;;;;;;3607102;39;20147;-52
2021/07/19 09:24:35;;;;;;;3.40;1.45;;;;;;;;;;3607126;39;20059;-46
2021/07/19 09:27:03;;;;;;;1.17;0.68;;;;;;;;;;3607166;39;20040;-53
2021/07/19 09:29:38;;;;;;;2.38;0.50;;;;;;;;;;3607002;39;20060;-51
2021/07/19 09:32:06;;;;;;;0.55;0.43;;;;;;;;;;3606153;39;20055;-48
2021/07/19 09:34:34;;;;;;;0.90;0.45;;;;;;;;;;3606493;39;20052;-48
2021/07/19 09:37:07;;;;;;;1.02;0.50;;;;;;;;;;3607004;39;20051;-45
2021/07/19 09:39:56;;;;;;;0.75;0.50;;;;;;;;;;3606918;39;20425;-49
2021/07/19 09:42:24;;;;;;;1.90;0.50;;;;;;;;;;3606727;39;20110;-57
2021/07/19 09:44:54;;;;;;;1.38;0.52;;;;;;;;;;3606772;39;20084;-52
2021/07/19 09:47:42;;;;;;;1.00;0.50;;;;;;;;;;3606950;39;20057;-51
2021/07/19 09:50:15;;;;;;;1.05;0.43;;;;;;;;;;3607159;39;20420;-51
2021/07/19 09:52:44;;;;;;;0.93;0.52;;;;;;;;;;3606481;39;20429;-52
2021/07/19 09:55:32;;;;;;;1.20;0.55;;;;;;;;;;3607445;39;20140;-56
2021/07/19 09:58:01;;;;;;;2.50;0.73;;;;;;;;;;3606732;39;20075;-55
2021/07/19 10:00:30;;;;;;;2.90;0.50;;;;;;;;;;3597511;39;20046;-56
2021/07/19 10:03:13;;;;;;;1.40;0.70;;;;;;;;;;3606462;39;20052;-57
2021/07/19 10:05:41;;;;;;;2.35;0.43;;;;;;;;;;3606900;39;20058;-47
2021/07/19 10:08:22;;;;;;;30.92;16.90;;;;;;;;;;3606524;39;20048;-50
2021/07/19 10:10:50;;;;;;;7.80;3.83;;;;;;;;;;3606853;39;20048;-46
2021/07/19 10:13:18;;;;;;;3.63;0.80;;;;;;;;;;3606952;39;20046;-57
2021/07/19 10:15:46;;;;;;;1.05;0.70;;;;;;;;;;3606858;39;20047;-54
2021/07/19 10:18:14;;;;;;;2.15;0.70;;;;;;;;;;3604643;39;20080;-51
2021/07/19 10:20:42;;;;;;;1.77;0.70;;;;;;;;;;3607696;39;20070;-52
2021/07/19 10:23:13;;;;;;;1.35;0.52;;;;;;;;;;3606625;39;20039;-44
2021/07/19 10:25:41;;;;;;;2.65;0.60;;;;;;;;;;3606261;39;20312;-53
2021/07/19 10:28:09;;;;;;;2.60;0.60;;;;;;;;;;3606571;39;20050;-54
2021/07/19 10:30:36;;;;;;;3.55;0.80;;;;;;;;;;3606973;39;20074;-48
2021/07/19 10:33:04;;;;;;;3.55;0.68;;;;;;;;;;3606396;39;20080;-44
2021/07/19 10:35:32;;;;;;;1.55;0.50;;;;;;;;;;3606543;39;20521;-54
2021/07/19 10:38:26;;;;;;;0.82;0.60;;;;;;;;;;3606740;39;20432;-52
2021/07/19 10:40:56;;;;;;;1.08;0.50;;;;;;;;;;3606532;39;20054;-53
2021/07/19 10:43:27;;;;;;;1.15;0.65;;;;;;;;;;3606670;39;20071;-48
2021/07/19 10:45:59;;;;;;;1.15;0.60;;;;;;;;;;3604635;39;20140;-54
2021/07/19 10:48:31;;;;;;;1.17;0.70;;;;;;;;;;3606598;39;20069;-50
2021/07/19 10:51:12;;;;;;;4.05;0.52;;;;;;;;;;3606241;39;20043;-50
2021/07/19 10:53:40;;;;;;;1.10;0.50;;;;;;;;;;3606735;39;20452;-51
2021/07/19 10:56:10;;;;;;;0.98;0.50;;;;;;;;;;3596768;39;20095;-47
2021/07/19 10:58:39;;;;;;;0.77;0.50;;;;;;;;;;3606961;39;20431;-49
2021/07/19 11:01:22;;;;;;;3.08;0.98;;;;;;;;;;3597234;39;20417;-51
2021/07/19 11:03:52;;;;;;;2.03;0.60;;;;;;;;;;3606379;39;20118;-52
2021/07/19 11:06:36;;;;;;;1.02;0.45;;;;;;;;;;3606562;39;20404;-49
2021/07/19 11:09:06;;;;;;;51.33;25.50;;;;;;;;;;3605006;39;20040;-54
2021/07/19 11:11:36;;;;;;;2.25;1.02;;;;;;;;;;3606526;39;20065;-53
2021/07/19 11:14:06;;;;;;;1.55;0.80;;;;;;;;;;3606025;39;20050;-52
2021/07/19 11:16:51;;;;;;;0.68;0.30;;;;;;;;;;3606201;39;20051;-55
2021/07/19 11:19:31;;;;;;;2.20;0.50;;;;;;;;;;3606640;39;20132;-52
2021/07/19 11:22:16;;;;;;;0.68;0.38;;;;;;;;;;3606487;39;20052;-55
2021/07/19 11:24:49;;;;;;;4.30;0.52;;;;;;;;;;3606383;39;20051;-50
2021/07/19 11:27:35;;;;;;;0.98;0.43;;;;;;;;;;3606335;39;20050;-54
2021/07/19 11:30:07;;;;;;;0.35;0.30;;;;;;;;;;3606652;39;20401;-50
2021/07/19 11:32:37;;;;;;;0.93;0.50;;;;;;;;;;3606471;39;20082;-51
2021/07/19 11:35:14;;;;;;;0.93;0.47;;;;;;;;;;3606346;39;20047;-55
2021/07/19 11:37:45;;;;;;;0.68;0.30;;;;;;;;;;3606101;39;20051;-53
2021/07/19 11:40:26;;;;;;;1.60;0.30;;;;;;;;;;3595610;39;21331;-47
2021/07/19 11:42:55;;;;;;;1.58;0.65;;;;;;;;;;3605831;39;20039;-55
2021/07/19 11:45:24;;;;;;;0.82;0.30;;;;;;;;;;3606384;39;20059;-55
2021/07/19 11:47:54;;;;;;;1.92;0.32;;;;;;;;;;3606597;39;20518;-47
2021/07/19 11:50:25;;;;;;;0.60;0.30;;;;;;;;;;3605969;39;20040;-48
2021/07/19 11:52:54;;;;;;;1.33;0.60;;;;;;;;;;3606034;39;20757;-49
2021/07/19 11:55:24;;;;;;;79.05;57.38;;;;;;;;;;3606313;39;20070;-60
2021/07/19 11:57:55;;;;;;;0.80;0.50;;;;;;;;;;3596759;39;20083;-56
2021/07/19 12:00:34;;;;;;;0.55;0.35;;;;;;;;;;3596886;39;20091;-45
2021/07/19 12:03:13;;;;;;;0.98;0.40;;;;;;;;;;3605908;39;20055;-49
2021/07/19 12:05:54;;;;;;;0.22;0.22;;;;;;;;;;3606054;39;20051;-47
2021/07/19 12:08:34;;;;;;;0.85;0.30;;;;;;;;;;3606199;39;20370;-55
2021/07/19 12:11:04;;;;;;;1.42;0.30;;;;;;;;;;3606300;39;20103;-49
2021/07/19 12:13:37;;;;;;;0.90;0.30;;;;;;;;;;3606122;39;20052;-48
2021/07/19 12:16:06;;;;;;;0.93;0.20;;;;;;;;;;3606250;39;20075;-47
2021/07/19 12:18:37;;;;;;;1.85;0.38;;;;;;;;;;3605659;39;20059;-48
2021/07/19 12:21:12;;;;;;;2.20;0.30;;;;;;;;;;3606603;39;20123;-50
2021/07/19 12:23:46;;;;;;;2.00;0.20;;;;;;;;;;3605817;39;20409;-45
2021/07/19 12:26:17;;;;;;;0.82;0.30;;;;;;;;;;3606068;39;20076;-54
2021/07/19 12:29:03;;;;;;;0.32;0.22;;;;;;;;;;3596466;39;20063;-56
2021/07/19 12:31:48;;;;;;;6.85;0.50;;;;;;;;;;3606110;39;20052;-53
2021/07/19 12:34:16;;;;;;;0.32;0.30;;;;;;;;;;3605854;39;20066;-46
2021/07/19 12:36:58;;;;;;;3.28;0.20;;;;;;;;;;3605661;39;20110;-49
2021/07/19 12:39:29;;;;;;;0.30;0.30;;;;;;;;;;3605891;39;20329;-47
2021/07/19 12:41:58;;;;;;;0.88;0.30;;;;;;;;;;3605892;39;20405;-50
2021/07/19 12:44:29;;;;;;;21.27;12.07;;;;;;;;;;3605505;39;20048;-47
2021/07/19 12:46:58;;;;;;;8.43;3.28;;;;;;;;;;3605565;39;20133;-53
2021/07/19 12:49:32;;;;;;;1.80;0.38;;;;;;;;;;3605943;39;20120;-55
2021/07/19 12:52:25;;;;;;;0.30;0.28;;;;;;;;;;3606488;39;20082;-56
2021/07/19 12:55:22;;;;;;;1.50;0.30;;;;;;;;;;3607258;39;20059;-44
2021/07/19 12:57:54;;;;;;;0.30;0.30;;;;;;;;;;3607415;39;20100;-50
2021/07/19 13:00:28;;;;;;;0.67;0.30;;;;;;;;;;3607390;39;20054;-49
2021/07/19 13:03:04;;;;;;;1.58;0.20;;;;;;;;;;3606706;39;20333;-44
2021/07/19 13:05:33;;;;;;;1.00;0.40;;;;;;;;;;3597647;39;20051;-55
2021/07/19 13:08:00;;;;;;;1.55;0.40;;;;;;;;;;3608547;39;20043;-54
2021/07/19 13:10:29;;;;;;;0.30;0.30;;;;;;;;;;3605371;39;20401;-55
2021/07/19 13:13:00;;;;;;;2.00;0.30;;;;;;;;;;3607541;39;20048;-48
2021/07/19 13:15:30;;;;;;;1.45;0.40;;;;;;;;;;3607234;39;20053;-49
2021/07/19 13:18:03;;;;;;;0.55;0.32;;;;;;;;;;3607251;39;20047;-53
2021/07/19 13:20:31;;;;;;;;;;;;;;;;;;3607828;39;20047;-53
2021/07/19 13:23:11;;;;;;;1.38;0.30;;;;;;;;;;3607422;39;19936;-50
2021/07/19 13:25:41;;;;;;;0.70;0.30;;;;;;;;;;3607168;39;20068;-52
2021/07/19 13:28:08;;;;;;;1.80;1.05;;;;;;;;;;3607517;39;20394;-48
2021/07/19 13:30:36;;;;;;;14.65;6.13;;;;;;;;;;3607179;39;20413;-54
2021/07/19 13:33:05;;;;;;;0.82;0.50;;;;;;;;;;3607177;39;20558;-48
2021/07/19 13:35:52;;;;;;;0.65;0.30;;;;;;;;;;3607168;39;20058;-48
2021/07/19 13:38:20;;;;;;;0.70;0.40;;;;;;;;;;3607145;39;20047;-45
2021/07/19 13:40:52;;;;;;;0.30;0.30;;;;;;;;;;3597466;39;20105;-55
2021/07/19 13:43:21;;;;;;;1.00;0.40;;;;;;;;;;3604789;39;20067;-54
2021/07/19 13:45:50;;;;;;;1.25;0.30;;;;;;;;;;3607090;39;20058;-50
2021/07/19 13:48:17;;;;;;;2.47;0.32;;;;;;;;;;3606926;39;20099;-47
2021/07/19 13:50:45;;;;;;;0.30;0.30;;;;;;;;;;3606190;39;20051;-53
2021/07/19 13:53:12;;;;;;;1.98;0.40;;;;;;;;;;3606846;39;20047;-52
2021/07/19 13:55:40;;;;;;;0.80;0.40;;;;;;;;;;3597650;39;20076;-46
2021/07/19 13:58:08;;;;;;;0.40;0.30;;;;;;;;;;3607239;39;20051;-55
2021/07/19 14:00:38;;;;;;;0.25;0.20;;;;;;;;;;3597324;39;20054;-49
2021/07/19 14:03:06;;;;;;;9.80;3.67;;;;;;;;;;3606675;39;20503;-53
2021/07/19 14:05:33;;;;;;;2.83;1.00;;;;;;;;;;3606708;39;20688;-49
2021/07/19 14:08:01;;;;;;;0.40;0.30;;;;;;;;;;3606710;39;20043;-55
2021/07/19 14:10:29;;;;;;;2.17;0.40;;;;;;;;;;3606970;39;20066;-55
2021/07/19 14:12:56;;;;;;;0.70;0.32;;;;;;;;;;3597184;39;20398;-52
2021/07/19 14:15:24;;;;;;;1.08;0.40;;;;;;;;;;3606982;39;20051;-49
2021/07/19 14:17:51;;;;;;;0.30;0.30;;;;;;;;;;3606637;39;20341;-57
2021/07/19 14:20:19;;;;;;;0.60;0.40;;;;;;;;;;3606555;39;20055;-50
2021/07/19 14:22:47;;;;;;;0.70;0.40;;;;;;;;;;3606732;39;20028;-56
2021/07/19 14:25:16;;;;;;;0.43;0.35;;;;;;;;;;3606454;39;20047;-47
2021/07/19 14:27:43;;;;;;;0.60;0.40;;;;;;;;;;3606821;39;20040;-50
2021/07/19 14:30:13;;;;;;;0.60;0.30;;;;;;;;;;3607019;39;20329;-48
2021/07/19 14:32:42;;;;;;;0.60;0.40;;;;;;;;;;3606759;39;20043;-50
2021/07/19 14:35:13;;;;;;;16.98;7.82;;;;;;;;;;3606898;39;20140;-45
2021/07/19 14:37:43;;;;;;;1.52;0.68;;;;;;;;;;3606541;39;20195;-46
2021/07/19 14:40:12;;;;;;;2.60;1.65;;;;;;;;;;3606896;39;20044;-44
2021/07/19 14:42:46;;;;;;;6.80;6.15;;;;;;;;;;3606468;39;20039;-47
2021/07/19 14:45:14;;;;;;;1.33;0.85;;;;;;;;;;3606189;39;20052;-48
2021/07/19 14:47:42;;;;;;;1.13;0.70;;;;;;;;;;3606023;39;20048;-53
2021/07/19 14:50:11;;;;;;;17.33;15.63;;;;;;;;;;3604659;39;20047;-42
2021/07/19 14:52:42;;;;;;;2.40;1.23;;;;;;;;;;3606606;39;20047;-55
2021/07/19 14:55:10;;;;;;;1.10;0.80;;;;;;;;;;3606977;39;20043;-52
2021/07/19 14:57:39;;;;;;;2.42;0.40;;;;;;;;;;3606728;39;20502;-56
2021/07/19 15:00:10;;;;;;;2.28;0.57;;;;;;;;;;3606491;39;20790;-50
2021/07/19 15:02:39;;;;;;;0.50;0.30;;;;;;;;;;3606597;39;20055;-56
2021/07/19 15:05:07;;;;;;;1.77;0.38;;;;;;;;;;3605844;39;20044;-52